sensor_id;sensor_type;location;lat;lon;timestamp;P1;durP1;ratioP1;P2;durP2;ratioP2
3949;SDS011;53057;50.988;6.314;2022-12-17T00:02:14;232.18;;;64.38;;
3949;SDS011;53057;50.988;6.314;2022-12-17T00:04:59;223.10;;;60.47;;
3949;SDS011;53057;50.988;6.314;2022-12-17T00:07:44;239.50;;;64.00;;
3949;SDS011;53057;50.988;6.314;2022-12-17T00:10:30;237.30;;;60.58;;
3949;SDS011;53057;50.988;6.314;2022-12-17T00:13:16;191.50;;;51.78;;
3949;SDS011;53057;50.988;6.314;2022-12-17T00:16:03;237.07;;;65.65;;
3949;SDS011;53057;50.988;6.314;2022-12-17T00:18:49;236.95;;;63.47;;
3949;SDS011;53057;50.988;6.314;2022-12-17T00:21:35;200.98;;;54.55;;
3949;SDS011;53057;50.988;6.314;2022-12-17T00:24:21;231.38;;;63.67;;
3949;SDS011;53057;50.988;6.314;2022-12-17T00:27:07;194.45;;;58.05;;
3949;SDS011;53057;50.988;6.314;2022-12-17T00:29:52;227.73;;;66.90;;
3949;SDS011;53057;50.988;6.314;2022-12-17T00:32:37;210.77;;;59.97;;
3949;SDS011;53057;50.988;6.314;2022-12-17T00:35:23;247.88;;;73.00;;
3949;SDS011;53057;50.988;6.314;2022-12-17T00:38:14;199.70;;;63.25;;
3949;SDS011;53057;50.988;6.314;2022-12-17T00:40:59;218.05;;;59.03;;
3949;SDS011;53057;50.988;6.314;2022-12-17T00:43:44;184.65;;;52.88;;
3949;SDS011;53057;50.988;6.314;2022-12-17T00:46:30;179.05;;;54.22;;
3949;SDS011;53057;50.988;6.314;2022-12-17T00:49:15;222.73;;;61.08;;
3949;SDS011;53057;50.988;6.314;2022-12-17T00:52:03;193.25;;;59.92;;
3949;SDS011;53057;50.988;6.314;2022-12-17T00:54:48;216.02;;;56.13;;
3949;SDS011;53057;50.988;6.314;2022-12-17T00:57:33;174.40;;;52.72;;
3949;SDS011;53057;50.988;6.314;2022-12-17T01:00:33;206.38;;;58.65;;
3949;SDS011;53057;50.988;6.314;2022-12-17T01:03:21;220.00;;;65.93;;
3949;SDS011;53057;50.988;6.314;2022-12-17T01:06:07;206.52;;;59.10;;
3949;SDS011;53057;50.988;6.314;2022-12-17T01:08:53;209.68;;;62.78;;
3949;SDS011;53057;50.988;6.314;2022-12-17T01:11:39;186.23;;;55.90;;
3949;SDS011;53057;50.988;6.314;2022-12-17T01:14:24;212.93;;;61.45;;
3949;SDS011;53057;50.988;6.314;2022-12-17T01:17:10;199.70;;;56.33;;
3949;SDS011;53057;50.988;6.314;2022-12-17T01:19:55;184.02;;;57.80;;
3949;SDS011;53057;50.988;6.314;2022-12-17T01:22:41;185.70;;;59.17;;
3949;SDS011;53057;50.988;6.314;2022-12-17T01:25:26;212.02;;;59.38;;
3949;SDS011;53057;50.988;6.314;2022-12-17T01:28:11;184.32;;;57.30;;
3949;SDS011;53057;50.988;6.314;2022-12-17T01:30:56;192.52;;;56.67;;
3949;SDS011;53057;50.988;6.314;2022-12-17T01:33:42;185.73;;;61.92;;
3949;SDS011;53057;50.988;6.314;2022-12-17T01:36:27;201.27;;;56.92;;
3949;SDS011;53057;50.988;6.314;2022-12-17T01:39:12;190.00;;;58.90;;
3949;SDS011;53057;50.988;6.314;2022-12-17T01:41:58;175.48;;;59.28;;
3949;SDS011;53057;50.988;6.314;2022-12-17T01:44:46;219.60;;;69.32;;
3949;SDS011;53057;50.988;6.314;2022-12-17T01:50:17;198.60;;;63.08;;
3949;SDS011;53057;50.988;6.314;2022-12-17T01:53:04;212.77;;;63.25;;
3949;SDS011;53057;50.988;6.314;2022-12-17T01:55:50;221.52;;;65.55;;
3949;SDS011;53057;50.988;6.314;2022-12-17T01:58:36;199.15;;;61.78;;
3949;SDS011;53057;50.988;6.314;2022-12-17T02:01:22;214.32;;;65.75;;
3949;SDS011;53057;50.988;6.314;2022-12-17T02:04:07;183.70;;;60.85;;
3949;SDS011;53057;50.988;6.314;2022-12-17T02:07:39;181.57;;;63.67;;
3949;SDS011;53057;50.988;6.314;2022-12-17T02:10:19;179.98;;;62.10;;
3949;SDS011;53057;50.988;6.314;2022-12-17T02:13:09;190.60;;;62.25;;
3949;SDS011;53057;50.988;6.314;2022-12-17T02:16:07;187.68;;;57.47;;
3949;SDS011;53057;50.988;6.314;2022-12-17T02:18:55;190.45;;;60.47;;
3949;SDS011;53057;50.988;6.314;2022-12-17T02:21:42;189.45;;;60.22;;
3949;SDS011;53057;50.988;6.314;2022-12-17T02:24:40;179.50;;;63.08;;
3949;SDS011;53057;50.988;6.314;2022-12-17T02:27:28;187.73;;;62.78;;
3949;SDS011;53057;50.988;6.314;2022-12-17T02:30:14;161.77;;;59.13;;
3949;SDS011;53057;50.988;6.314;2022-12-17T02:33:00;156.98;;;56.10;;
3949;SDS011;53057;50.988;6.314;2022-12-17T02:35:48;159.73;;;54.88;;
3949;SDS011;53057;50.988;6.314;2022-12-17T02:38:36;160.35;;;58.25;;
3949;SDS011;53057;50.988;6.314;2022-12-17T02:42:07;155.32;;;54.75;;
3949;SDS011;53057;50.988;6.314;2022-12-17T02:44:33;164.20;;;61.78;;
3949;SDS011;53057;50.988;6.314;2022-12-17T02:47:19;157.50;;;61.67;;
3949;SDS011;53057;50.988;6.314;2022-12-17T02:50:06;126.78;;;45.00;;
3949;SDS011;53057;50.988;6.314;2022-12-17T02:52:51;168.70;;;51.55;;
3949;SDS011;53057;50.988;6.314;2022-12-17T02:55:37;154.90;;;53.88;;
3949;SDS011;53057;50.988;6.314;2022-12-17T02:58:24;143.23;;;52.65;;
3949;SDS011;53057;50.988;6.314;2022-12-17T03:01:11;119.35;;;41.15;;
3949;SDS011;53057;50.988;6.314;2022-12-17T03:03:57;120.35;;;43.13;;
3949;SDS011;53057;50.988;6.314;2022-12-17T03:06:44;111.80;;;40.83;;
3949;SDS011;53057;50.988;6.314;2022-12-17T03:09:29;140.57;;;46.22;;
3949;SDS011;53057;50.988;6.314;2022-12-17T03:12:15;97.55;;;35.03;;
3949;SDS011;53057;50.988;6.314;2022-12-17T03:15:00;92.00;;;33.95;;
3949;SDS011;53057;50.988;6.314;2022-12-17T03:17:45;88.32;;;34.35;;
3949;SDS011;53057;50.988;6.314;2022-12-17T03:20:31;114.38;;;48.22;;
3949;SDS011;53057;50.988;6.314;2022-12-17T03:23:16;84.53;;;37.08;;
3949;SDS011;53057;50.988;6.314;2022-12-17T03:26:02;83.57;;;37.70;;
3949;SDS011;53057;50.988;6.314;2022-12-17T03:28:47;92.20;;;36.05;;
3949;SDS011;53057;50.988;6.314;2022-12-17T03:31:33;118.70;;;43.33;;
3949;SDS011;53057;50.988;6.314;2022-12-17T03:34:18;117.10;;;41.28;;
3949;SDS011;53057;50.988;6.314;2022-12-17T03:37:04;98.47;;;44.13;;
3949;SDS011;53057;50.988;6.314;2022-12-17T03:39:49;77.50;;;26.85;;
3949;SDS011;53057;50.988;6.314;2022-12-17T03:42:34;83.03;;;29.85;;
3949;SDS011;53057;50.988;6.314;2022-12-17T03:45:20;86.05;;;35.92;;
3949;SDS011;53057;50.988;6.314;2022-12-17T03:48:06;85.00;;;38.72;;
3949;SDS011;53057;50.988;6.314;2022-12-17T03:50:52;111.20;;;50.55;;
3949;SDS011;53057;50.988;6.314;2022-12-17T03:53:38;116.95;;;51.13;;
3949;SDS011;53057;50.988;6.314;2022-12-17T03:56:23;105.57;;;46.03;;
3949;SDS011;53057;50.988;6.314;2022-12-17T03:59:09;107.13;;;46.15;;
3949;SDS011;53057;50.988;6.314;2022-12-17T04:01:54;113.18;;;47.28;;
3949;SDS011;53057;50.988;6.314;2022-12-17T04:04:40;83.05;;;36.47;;
3949;SDS011;53057;50.988;6.314;2022-12-17T04:07:25;113.03;;;47.05;;
3949;SDS011;53057;50.988;6.314;2022-12-17T04:10:10;105.75;;;44.90;;
3949;SDS011;53057;50.988;6.314;2022-12-17T04:12:56;68.05;;;28.98;;
3949;SDS011;53057;50.988;6.314;2022-12-17T04:15:41;92.40;;;38.42;;
3949;SDS011;53057;50.988;6.314;2022-12-17T04:18:26;104.30;;;44.95;;
3949;SDS011;53057;50.988;6.314;2022-12-17T04:21:12;109.88;;;43.38;;
3949;SDS011;53057;50.988;6.314;2022-12-17T04:23:57;95.28;;;38.60;;
3949;SDS011;53057;50.988;6.314;2022-12-17T04:26:42;90.57;;;39.08;;
3949;SDS011;53057;50.988;6.314;2022-12-17T04:29:28;87.55;;;36.67;;
3949;SDS011;53057;50.988;6.314;2022-12-17T04:32:13;113.80;;;46.35;;
3949;SDS011;53057;50.988;6.314;2022-12-17T04:35:01;68.93;;;27.00;;
3949;SDS011;53057;50.988;6.314;2022-12-17T04:37:46;81.88;;;32.42;;
3949;SDS011;53057;50.988;6.314;2022-12-17T04:40:33;70.72;;;28.83;;
3949;SDS011;53057;50.988;6.314;2022-12-17T04:43:18;72.28;;;21.10;;
3949;SDS011;53057;50.988;6.314;2022-12-17T04:46:04;68.53;;;26.23;;
3949;SDS011;53057;50.988;6.314;2022-12-17T04:48:49;165.70;;;73.10;;
3949;SDS011;53057;50.988;6.314;2022-12-17T04:51:35;100.60;;;44.63;;
3949;SDS011;53057;50.988;6.314;2022-12-17T04:54:20;101.90;;;42.30;;
3949;SDS011;53057;50.988;6.314;2022-12-17T04:57:05;172.13;;;63.22;;
3949;SDS011;53057;50.988;6.314;2022-12-17T04:59:51;104.15;;;41.38;;
3949;SDS011;53057;50.988;6.314;2022-12-17T05:02:36;101.75;;;42.10;;
3949;SDS011;53057;50.988;6.314;2022-12-17T05:05:22;111.85;;;41.55;;
3949;SDS011;53057;50.988;6.314;2022-12-17T05:08:07;108.28;;;41.67;;
3949;SDS011;53057;50.988;6.314;2022-12-17T05:10:52;125.28;;;44.17;;
3949;SDS011;53057;50.988;6.314;2022-12-17T05:13:37;119.00;;;40.67;;
3949;SDS011;53057;50.988;6.314;2022-12-17T05:16:23;96.32;;;38.45;;
3949;SDS011;53057;50.988;6.314;2022-12-17T05:19:08;90.97;;;33.80;;
3949;SDS011;53057;50.988;6.314;2022-12-17T05:21:53;70.22;;;30.67;;
3949;SDS011;53057;50.988;6.314;2022-12-17T05:24:38;93.07;;;35.20;;
3949;SDS011;53057;50.988;6.314;2022-12-17T05:27:24;91.13;;;39.70;;
3949;SDS011;53057;50.988;6.314;2022-12-17T05:30:09;82.60;;;28.65;;
3949;SDS011;53057;50.988;6.314;2022-12-17T05:33:02;71.88;;;31.00;;
3949;SDS011;53057;50.988;6.314;2022-12-17T05:35:47;70.70;;;28.30;;
3949;SDS011;53057;50.988;6.314;2022-12-17T05:38:33;67.28;;;27.05;;
3949;SDS011;53057;50.988;6.314;2022-12-17T05:41:19;60.97;;;25.80;;
3949;SDS011;53057;50.988;6.314;2022-12-17T05:44:04;78.07;;;26.50;;
3949;SDS011;53057;50.988;6.314;2022-12-17T05:46:49;74.35;;;27.02;;
3949;SDS011;53057;50.988;6.314;2022-12-17T05:49:35;75.47;;;30.48;;
3949;SDS011;53057;50.988;6.314;2022-12-17T05:52:22;92.75;;;30.33;;
3949;SDS011;53057;50.988;6.314;2022-12-17T05:55:08;101.53;;;34.38;;
3949;SDS011;53057;50.988;6.314;2022-12-17T05:58:00;106.22;;;34.60;;
3949;SDS011;53057;50.988;6.314;2022-12-17T06:00:46;111.53;;;37.88;;
3949;SDS011;53057;50.988;6.314;2022-12-17T06:03:31;111.13;;;36.03;;
3949;SDS011;53057;50.988;6.314;2022-12-17T06:06:17;105.03;;;36.28;;
3949;SDS011;53057;50.988;6.314;2022-12-17T06:09:16;97.38;;;35.28;;
3949;SDS011;53057;50.988;6.314;2022-12-17T06:12:02;98.63;;;36.83;;
3949;SDS011;53057;50.988;6.314;2022-12-17T06:14:47;98.43;;;36.67;;
3949;SDS011;53057;50.988;6.314;2022-12-17T06:17:32;108.95;;;36.45;;
3949;SDS011;53057;50.988;6.314;2022-12-17T06:20:18;98.88;;;34.80;;
3949;SDS011;53057;50.988;6.314;2022-12-17T06:23:04;106.10;;;36.90;;
3949;SDS011;53057;50.988;6.314;2022-12-17T06:25:56;99.32;;;33.55;;
3949;SDS011;53057;50.988;6.314;2022-12-17T06:28:41;70.65;;;30.88;;
3949;SDS011;53057;50.988;6.314;2022-12-17T06:31:28;79.00;;;29.88;;
3949;SDS011;53057;50.988;6.314;2022-12-17T06:34:13;95.85;;;36.88;;
3949;SDS011;53057;50.988;6.314;2022-12-17T06:36:59;93.80;;;36.97;;
3949;SDS011;53057;50.988;6.314;2022-12-17T06:39:44;118.38;;;35.15;;
3949;SDS011;53057;50.988;6.314;2022-12-17T06:42:29;93.53;;;33.95;;
3949;SDS011;53057;50.988;6.314;2022-12-17T06:45:15;108.07;;;33.83;;
3949;SDS011;53057;50.988;6.314;2022-12-17T06:48:01;107.97;;;38.35;;
3949;SDS011;53057;50.988;6.314;2022-12-17T06:50:46;91.15;;;32.50;;
3949;SDS011;53057;50.988;6.314;2022-12-17T06:53:32;86.90;;;31.27;;
3949;SDS011;53057;50.988;6.314;2022-12-17T06:56:17;98.60;;;33.15;;
3949;SDS011;53057;50.988;6.314;2022-12-17T06:59:02;94.63;;;34.50;;
3949;SDS011;53057;50.988;6.314;2022-12-17T07:01:47;70.53;;;26.60;;
3949;SDS011;53057;50.988;6.314;2022-12-17T07:04:33;83.25;;;30.45;;
3949;SDS011;53057;50.988;6.314;2022-12-17T07:07:18;62.08;;;21.40;;
3949;SDS011;53057;50.988;6.314;2022-12-17T07:10:04;68.65;;;27.98;;
3949;SDS011;53057;50.988;6.314;2022-12-17T07:12:49;89.10;;;30.63;;
3949;SDS011;53057;50.988;6.314;2022-12-17T07:15:34;59.45;;;26.05;;
3949;SDS011;53057;50.988;6.314;2022-12-17T07:18:20;54.17;;;22.45;;
3949;SDS011;53057;50.988;6.314;2022-12-17T07:21:05;72.78;;;27.77;;
3949;SDS011;53057;50.988;6.314;2022-12-17T07:23:50;53.13;;;23.30;;
3949;SDS011;53057;50.988;6.314;2022-12-17T07:26:36;82.68;;;28.40;;
3949;SDS011;53057;50.988;6.314;2022-12-17T07:29:21;50.65;;;19.15;;
3949;SDS011;53057;50.988;6.314;2022-12-17T07:32:06;60.58;;;22.15;;
3949;SDS011;53057;50.988;6.314;2022-12-17T07:34:52;54.70;;;23.00;;
3949;SDS011;53057;50.988;6.314;2022-12-17T07:37:37;62.38;;;24.52;;
3949;SDS011;53057;50.988;6.314;2022-12-17T07:40:23;49.75;;;21.67;;
3949;SDS011;53057;50.988;6.314;2022-12-17T07:43:09;43.17;;;19.38;;
3949;SDS011;53057;50.988;6.314;2022-12-17T07:45:54;67.47;;;21.42;;
3949;SDS011;53057;50.988;6.314;2022-12-17T07:48:39;69.95;;;25.27;;
3949;SDS011;53057;50.988;6.314;2022-12-17T07:51:24;45.65;;;18.10;;
3949;SDS011;53057;50.988;6.314;2022-12-17T07:54:10;32.28;;;12.70;;
3949;SDS011;53057;50.988;6.314;2022-12-17T07:56:55;46.03;;;13.63;;
3949;SDS011;53057;50.988;6.314;2022-12-17T07:59:40;52.85;;;20.48;;
3949;SDS011;53057;50.988;6.314;2022-12-17T08:02:26;46.78;;;21.17;;
3949;SDS011;53057;50.988;6.314;2022-12-17T08:05:11;56.67;;;18.08;;
3949;SDS011;53057;50.988;6.314;2022-12-17T08:07:57;43.75;;;15.68;;
3949;SDS011;53057;50.988;6.314;2022-12-17T08:10:42;34.20;;;16.63;;
3949;SDS011;53057;50.988;6.314;2022-12-17T08:13:32;50.90;;;20.63;;
3949;SDS011;53057;50.988;6.314;2022-12-17T08:16:17;38.65;;;18.60;;
3949;SDS011;53057;50.988;6.314;2022-12-17T08:19:03;41.58;;;16.35;;
3949;SDS011;53057;50.988;6.314;2022-12-17T08:21:48;48.05;;;17.65;;
3949;SDS011;53057;50.988;6.314;2022-12-17T08:24:33;40.80;;;16.52;;
3949;SDS011;53057;50.988;6.314;2022-12-17T08:27:19;61.15;;;22.83;;
3949;SDS011;53057;50.988;6.314;2022-12-17T08:30:07;58.47;;;19.15;;
3949;SDS011;53057;50.988;6.314;2022-12-17T08:33:04;77.03;;;30.50;;
3949;SDS011;53057;50.988;6.314;2022-12-17T08:35:51;76.65;;;35.72;;
3949;SDS011;53057;50.988;6.314;2022-12-17T08:38:36;37.80;;;24.02;;
3949;SDS011;53057;50.988;6.314;2022-12-17T08:41:22;76.22;;;27.88;;
3949;SDS011;53057;50.988;6.314;2022-12-17T08:44:07;49.08;;;18.50;;
3949;SDS011;53057;50.988;6.314;2022-12-17T08:46:53;68.10;;;27.05;;
3949;SDS011;53057;50.988;6.314;2022-12-17T08:49:58;41.13;;;16.27;;
3949;SDS011;53057;50.988;6.314;2022-12-17T08:52:43;33.95;;;17.73;;
3949;SDS011;53057;50.988;6.314;2022-12-17T08:55:28;65.85;;;22.67;;
3949;SDS011;53057;50.988;6.314;2022-12-17T08:58:14;65.72;;;24.30;;
3949;SDS011;53057;50.988;6.314;2022-12-17T09:01:00;45.50;;;18.98;;
3949;SDS011;53057;50.988;6.314;2022-12-17T09:03:45;68.53;;;25.50;;
3949;SDS011;53057;50.988;6.314;2022-12-17T09:06:31;199.60;;;73.65;;
3949;SDS011;53057;50.988;6.314;2022-12-17T09:09:17;87.95;;;32.10;;
3949;SDS011;53057;50.988;6.314;2022-12-17T09:12:02;61.15;;;22.98;;
3949;SDS011;53057;50.988;6.314;2022-12-17T09:14:47;78.88;;;24.73;;
3949;SDS011;53057;50.988;6.314;2022-12-17T09:17:33;94.18;;;34.55;;
3949;SDS011;53057;50.988;6.314;2022-12-17T09:20:32;68.78;;;33.65;;
3949;SDS011;53057;50.988;6.314;2022-12-17T09:23:22;54.10;;;26.73;;
3949;SDS011;53057;50.988;6.314;2022-12-17T09:26:07;51.92;;;22.25;;
3949;SDS011;53057;50.988;6.314;2022-12-17T09:28:53;52.00;;;23.52;;
3949;SDS011;53057;50.988;6.314;2022-12-17T09:31:39;50.50;;;17.92;;
3949;SDS011;53057;50.988;6.314;2022-12-17T09:34:24;49.33;;;21.15;;
3949;SDS011;53057;50.988;6.314;2022-12-17T09:37:10;42.50;;;19.02;;
3949;SDS011;53057;50.988;6.314;2022-12-17T09:39:55;44.95;;;18.35;;
3949;SDS011;53057;50.988;6.314;2022-12-17T09:48:53;77.90;;;27.52;;
3949;SDS011;53057;50.988;6.314;2022-12-17T09:51:40;69.00;;;23.17;;
3949;SDS011;53057;50.988;6.314;2022-12-17T09:54:36;77.85;;;30.45;;
3949;SDS011;53057;50.988;6.314;2022-12-17T09:57:28;67.53;;;24.65;;
3949;SDS011;53057;50.988;6.314;2022-12-17T10:00:17;64.20;;;27.90;;
3949;SDS011;53057;50.988;6.314;2022-12-17T10:03:03;45.53;;;20.10;;
3949;SDS011;53057;50.988;6.314;2022-12-17T10:05:54;57.10;;;20.38;;
3949;SDS011;53057;50.988;6.314;2022-12-17T10:08:48;78.55;;;26.25;;
3949;SDS011;53057;50.988;6.314;2022-12-17T10:11:36;87.93;;;33.50;;
3949;SDS011;53057;50.988;6.314;2022-12-17T10:14:26;88.47;;;34.55;;
3949;SDS011;53057;50.988;6.314;2022-12-17T10:17:16;68.13;;;30.40;;
3949;SDS011;53057;50.988;6.314;2022-12-17T10:20:02;57.10;;;28.08;;
3949;SDS011;53057;50.988;6.314;2022-12-17T10:22:48;53.38;;;25.50;;
3949;SDS011;53057;50.988;6.314;2022-12-17T10:25:51;62.97;;;25.40;;
3949;SDS011;53057;50.988;6.314;2022-12-17T10:28:37;68.55;;;27.73;;
3949;SDS011;53057;50.988;6.314;2022-12-17T10:31:22;102.20;;;45.72;;
3949;SDS011;53057;50.988;6.314;2022-12-17T10:34:19;74.32;;;26.95;;
3949;SDS011;53057;50.988;6.314;2022-12-17T10:37:05;258.67;;;104.85;;
3949;SDS011;53057;50.988;6.314;2022-12-17T10:39:57;260.17;;;103.70;;
3949;SDS011;53057;50.988;6.314;2022-12-17T10:42:43;77.13;;;30.00;;
3949;SDS011;53057;50.988;6.314;2022-12-17T10:45:30;78.30;;;30.02;;
3949;SDS011;53057;50.988;6.314;2022-12-17T10:48:19;113.85;;;46.35;;
3949;SDS011;53057;50.988;6.314;2022-12-17T10:51:05;66.43;;;27.55;;
3949;SDS011;53057;50.988;6.314;2022-12-17T10:53:59;62.15;;;24.98;;
3949;SDS011;53057;50.988;6.314;2022-12-17T10:56:51;72.82;;;22.27;;
3949;SDS011;53057;50.988;6.314;2022-12-17T10:59:36;66.13;;;28.75;;
3949;SDS011;53057;50.988;6.314;2022-12-17T11:02:27;63.08;;;27.33;;
3949;SDS011;53057;50.988;6.314;2022-12-17T11:05:14;80.10;;;29.08;;
3949;SDS011;53057;50.988;6.314;2022-12-17T11:08:03;64.55;;;26.23;;
3949;SDS011;53057;50.988;6.314;2022-12-17T11:10:48;48.28;;;19.88;;
3949;SDS011;53057;50.988;6.314;2022-12-17T11:13:35;56.08;;;24.52;;
3949;SDS011;53057;50.988;6.314;2022-12-17T11:16:41;57.33;;;22.67;;
3949;SDS011;53057;50.988;6.314;2022-12-17T11:19:31;74.95;;;36.55;;
3949;SDS011;53057;50.988;6.314;2022-12-17T11:22:48;50.22;;;18.83;;
3949;SDS011;53057;50.988;6.314;2022-12-17T11:25:45;57.70;;;26.95;;
3949;SDS011;53057;50.988;6.314;2022-12-17T11:28:33;124.35;;;34.38;;
3949;SDS011;53057;50.988;6.314;2022-12-17T11:31:42;89.47;;;31.30;;
3949;SDS011;53057;50.988;6.314;2022-12-17T11:34:42;43.28;;;20.58;;
3949;SDS011;53057;50.988;6.314;2022-12-17T11:37:56;89.63;;;33.80;;
3949;SDS011;53057;50.988;6.314;2022-12-17T11:40:44;95.00;;;40.80;;
3949;SDS011;53057;50.988;6.314;2022-12-17T11:55:39;77.82;;;32.72;;
3949;SDS011;53057;50.988;6.314;2022-12-17T11:57:59;44.88;;;18.17;;
3949;SDS011;53057;50.988;6.314;2022-12-17T12:18:02;73.70;;;31.75;;
3949;SDS011;53057;50.988;6.314;2022-12-17T12:26:51;131.50;;;77.72;;
3949;SDS011;53057;50.988;6.314;2022-12-17T12:29:42;69.70;;;27.98;;
3949;SDS011;53057;50.988;6.314;2022-12-17T12:32:31;101.75;;;56.45;;
3949;SDS011;53057;50.988;6.314;2022-12-17T12:35:20;72.15;;;34.97;;
3949;SDS011;53057;50.988;6.314;2022-12-17T12:38:09;90.72;;;39.15;;
3949;SDS011;53057;50.988;6.314;2022-12-17T12:40:58;78.85;;;32.47;;
3949;SDS011;53057;50.988;6.314;2022-12-17T12:43:49;68.88;;;30.38;;
3949;SDS011;53057;50.988;6.314;2022-12-17T12:46:43;90.32;;;46.67;;
3949;SDS011;53057;50.988;6.314;2022-12-17T12:52:22;86.10;;;32.00;;
3949;SDS011;53057;50.988;6.314;2022-12-17T12:55:08;76.10;;;32.05;;
3949;SDS011;53057;50.988;6.314;2022-12-17T13:00:42;77.20;;;28.70;;
3949;SDS011;53057;50.988;6.314;2022-12-17T13:06:41;68.10;;;30.10;;
3949;SDS011;53057;50.988;6.314;2022-12-17T13:11:41;42.08;;;16.70;;
3949;SDS011;53057;50.988;6.314;2022-12-17T13:14:52;29.17;;;13.40;;
3949;SDS011;53057;50.988;6.314;2022-12-17T13:19:32;25.60;;;12.27;;
3949;SDS011;53057;50.988;6.314;2022-12-17T13:24:50;30.95;;;12.52;;
3949;SDS011;53057;50.988;6.314;2022-12-17T13:42:58;57.35;;;25.88;;
3949;SDS011;53057;50.988;6.314;2022-12-17T13:45:25;42.83;;;17.33;;
3949;SDS011;53057;50.988;6.314;2022-12-17T13:47:53;37.63;;;18.48;;
3949;SDS011;53057;50.988;6.314;2022-12-17T13:50:21;39.03;;;19.90;;
3949;SDS011;53057;50.988;6.314;2022-12-17T13:53:10;34.05;;;15.80;;
3949;SDS011;53057;50.988;6.314;2022-12-17T13:55:38;34.97;;;18.38;;
3949;SDS011;53057;50.988;6.314;2022-12-17T13:58:17;34.53;;;16.17;;
3949;SDS011;53057;50.988;6.314;2022-12-17T14:00:45;51.85;;;24.88;;
3949;SDS011;53057;50.988;6.314;2022-12-17T14:03:12;26.63;;;10.65;;
3949;SDS011;53057;50.988;6.314;2022-12-17T14:05:38;30.05;;;16.02;;
3949;SDS011;53057;50.988;6.314;2022-12-17T14:08:11;51.80;;;23.00;;
3949;SDS011;53057;50.988;6.314;2022-12-17T14:10:50;43.67;;;20.90;;
3949;SDS011;53057;50.988;6.314;2022-12-17T14:13:17;44.95;;;21.20;;
3949;SDS011;53057;50.988;6.314;2022-12-17T14:15:44;40.10;;;21.38;;
3949;SDS011;53057;50.988;6.314;2022-12-17T14:18:14;43.95;;;21.80;;
3949;SDS011;53057;50.988;6.314;2022-12-17T14:20:41;41.80;;;22.33;;
3949;SDS011;53057;50.988;6.314;2022-12-17T14:23:17;41.85;;;17.35;;
3949;SDS011;53057;50.988;6.314;2022-12-17T14:25:46;65.20;;;24.17;;
3949;SDS011;53057;50.988;6.314;2022-12-17T14:28:21;46.90;;;20.35;;
3949;SDS011;53057;50.988;6.314;2022-12-17T14:30:49;27.52;;;15.02;;
3949;SDS011;53057;50.988;6.314;2022-12-17T14:33:36;40.90;;;20.33;;
3949;SDS011;53057;50.988;6.314;2022-12-17T14:36:07;34.78;;;18.95;;
3949;SDS011;53057;50.988;6.314;2022-12-17T14:38:34;41.53;;;19.75;;
3949;SDS011;53057;50.988;6.314;2022-12-17T14:41:07;34.33;;;15.80;;
3949;SDS011;53057;50.988;6.314;2022-12-17T14:43:55;40.28;;;18.40;;
3949;SDS011;53057;50.988;6.314;2022-12-17T14:46:22;23.23;;;14.95;;
3949;SDS011;53057;50.988;6.314;2022-12-17T14:48:56;37.83;;;18.73;;
3949;SDS011;53057;50.988;6.314;2022-12-17T14:54:18;44.22;;;19.90;;
3949;SDS011;53057;50.988;6.314;2022-12-17T14:56:47;51.35;;;24.13;;
3949;SDS011;53057;50.988;6.314;2022-12-17T14:59:31;54.65;;;23.02;;
3949;SDS011;53057;50.988;6.314;2022-12-17T15:01:59;46.05;;;23.20;;
3949;SDS011;53057;50.988;6.314;2022-12-17T15:04:27;43.08;;;16.70;;
3949;SDS011;53057;50.988;6.314;2022-12-17T15:06:54;37.75;;;18.88;;
3949;SDS011;53057;50.988;6.314;2022-12-17T15:09:21;39.38;;;20.42;;
3949;SDS011;53057;50.988;6.314;2022-12-17T15:11:48;50.10;;;21.17;;
3949;SDS011;53057;50.988;6.314;2022-12-17T15:14:14;48.28;;;20.27;;
3949;SDS011;53057;50.988;6.314;2022-12-17T15:16:41;37.20;;;18.52;;
3949;SDS011;53057;50.988;6.314;2022-12-17T15:19:08;46.90;;;16.48;;
3949;SDS011;53057;50.988;6.314;2022-12-17T15:21:34;30.95;;;14.43;;
3949;SDS011;53057;50.988;6.314;2022-12-17T15:24:01;29.58;;;14.75;;
3949;SDS011;53057;50.988;6.314;2022-12-17T15:26:28;32.13;;;16.73;;
3949;SDS011;53057;50.988;6.314;2022-12-17T15:28:54;32.90;;;14.85;;
3949;SDS011;53057;50.988;6.314;2022-12-17T15:31:23;34.13;;;13.18;;
3949;SDS011;53057;50.988;6.314;2022-12-17T15:33:53;34.60;;;15.82;;
3949;SDS011;53057;50.988;6.314;2022-12-17T15:36:20;40.28;;;15.60;;
3949;SDS011;53057;50.988;6.314;2022-12-17T15:38:47;39.83;;;20.42;;
3949;SDS011;53057;50.988;6.314;2022-12-17T15:41:13;38.20;;;15.77;;
3949;SDS011;53057;50.988;6.314;2022-12-17T15:43:59;27.85;;;15.02;;
3949;SDS011;53057;50.988;6.314;2022-12-17T15:46:25;34.63;;;15.02;;
3949;SDS011;53057;50.988;6.314;2022-12-17T15:48:53;28.23;;;13.40;;
3949;SDS011;53057;50.988;6.314;2022-12-17T15:51:19;52.45;;;17.23;;
3949;SDS011;53057;50.988;6.314;2022-12-17T15:53:46;49.95;;;20.85;;
3949;SDS011;53057;50.988;6.314;2022-12-17T15:56:16;41.53;;;17.65;;
3949;SDS011;53057;50.988;6.314;2022-12-17T15:58:44;46.55;;;21.92;;
3949;SDS011;53057;50.988;6.314;2022-12-17T16:01:11;44.60;;;22.08;;
3949;SDS011;53057;50.988;6.314;2022-12-17T16:03:38;65.75;;;23.95;;
3949;SDS011;53057;50.988;6.314;2022-12-17T16:06:05;47.03;;;20.23;;
3949;SDS011;53057;50.988;6.314;2022-12-17T16:08:32;58.08;;;26.35;;
3949;SDS011;53057;50.988;6.314;2022-12-17T16:10:58;57.65;;;25.83;;
3949;SDS011;53057;50.988;6.314;2022-12-17T16:13:25;51.33;;;23.13;;
3949;SDS011;53057;50.988;6.314;2022-12-17T16:15:55;52.58;;;20.80;;
3949;SDS011;53057;50.988;6.314;2022-12-17T16:18:29;57.55;;;23.95;;
3949;SDS011;53057;50.988;6.314;2022-12-17T16:21:02;64.90;;;25.77;;
3949;SDS011;53057;50.988;6.314;2022-12-17T16:23:30;68.13;;;24.52;;
3949;SDS011;53057;50.988;6.314;2022-12-17T16:25:57;66.90;;;27.60;;
3949;SDS011;53057;50.988;6.314;2022-12-17T16:28:25;68.57;;;24.70;;
3949;SDS011;53057;50.988;6.314;2022-12-17T16:31:05;61.10;;;26.33;;
3949;SDS011;53057;50.988;6.314;2022-12-17T16:33:33;68.78;;;24.80;;
3949;SDS011;53057;50.988;6.314;2022-12-17T16:36:01;53.15;;;21.20;;
3949;SDS011;53057;50.988;6.314;2022-12-17T16:38:28;63.95;;;26.45;;
3949;SDS011;53057;50.988;6.314;2022-12-17T16:40:59;66.38;;;28.58;;
3949;SDS011;53057;50.988;6.314;2022-12-17T16:43:26;59.13;;;25.75;;
3949;SDS011;53057;50.988;6.314;2022-12-17T16:45:53;71.55;;;24.80;;
3949;SDS011;53057;50.988;6.314;2022-12-17T16:48:20;56.00;;;24.48;;
3949;SDS011;53057;50.988;6.314;2022-12-17T16:50:47;38.78;;;19.48;;
3949;SDS011;53057;50.988;6.314;2022-12-17T16:53:14;70.15;;;26.08;;
3949;SDS011;53057;50.988;6.314;2022-12-17T16:55:42;51.67;;;22.02;;
3949;SDS011;53057;50.988;6.314;2022-12-17T16:58:08;62.92;;;26.52;;
3949;SDS011;53057;50.988;6.314;2022-12-17T17:00:35;80.63;;;28.80;;
3949;SDS011;53057;50.988;6.314;2022-12-17T17:03:03;61.53;;;27.45;;
3949;SDS011;53057;50.988;6.314;2022-12-17T17:05:30;78.45;;;29.92;;
3949;SDS011;53057;50.988;6.314;2022-12-17T17:07:58;82.85;;;29.42;;
3949;SDS011;53057;50.988;6.314;2022-12-17T17:10:24;95.00;;;31.77;;
3949;SDS011;53057;50.988;6.314;2022-12-17T17:12:51;63.25;;;30.42;;
3949;SDS011;53057;50.988;6.314;2022-12-17T17:15:18;68.00;;;28.70;;
3949;SDS011;53057;50.988;6.314;2022-12-17T17:17:45;73.82;;;28.48;;
3949;SDS011;53057;50.988;6.314;2022-12-17T17:20:21;69.47;;;29.92;;
3949;SDS011;53057;50.988;6.314;2022-12-17T17:22:48;55.55;;;22.25;;